Flight Track Log - Related Links

Times and Time Zones

All times are in EDT time to prevent confusion due to time zone crossing. See the EGF3681 flight status page for this flight to view local times or setup timezone preferences in your user account.

Time Position Orientation Groundspeed Altitude Reporting Facility
EDT Latitude Longitude Course Direction KTS MPH feet Rate Location/Type
Thu 11:59:40 PM 42.0167 -87.9333 95° East 163 188 2,000  Level Chicago TRACON
Fri 12:00:40 AM 42.0500 -87.9500 340° North 211 243 3,900 2,077 Climbing Chicago TRACON
Fri 12:01:00 AM 41.9660 -87.5267 98° East  Level FlightAware Approximate
Fri 12:02:00 AM 41.9537 -87.4034 98° East  Level FlightAware Approximate
Fri 12:02:16 AM 42.0867 -87.8306 67° East 258 297 7,400  Level Chicago Center
Fri 12:03:00 AM 41.9439 -87.2797 95° East  Level FlightAware Approximate
Fri 12:03:17 AM 42.0689 -87.7342 104° East 264 304 9,700  Level Chicago Center
Fri 12:04:00 AM 41.9350 -87.1559 95° East  Level FlightAware Approximate
Fri 12:04:17 AM 42.0497 -87.6331 104° East 276 318 11,600  Level Chicago Center
Fri 12:05:18 AM 42.0303 -87.5228 103° East 298 343 13,500 1,574 Climbing Chicago Center
Fri 12:06:19 AM 42.0078 -87.4078 105° East 315 362 14,800 1,190 Climbing Chicago Center
Fri 12:07:19 AM 41.9858 -87.2794 103° East 346 398 15,900 1,041 Climbing Chicago Center
Fri 12:08:20 AM 41.9372 -87.1572 118° Southeast 369 425 16,900 885 Climbing Chicago Center
Fri 12:09:21 AM 41.8781 -87.0358 123° Southeast 385 443 17,700 893 Climbing Chicago Center
Fri 12:10:21 AM 41.8181 -86.9094 122° Southeast 398 458 18,700 992 Climbing Chicago Center
Fri 12:11:22 AM 41.7569 -86.7814 123° Southeast 406 467 19,700 1,041 Climbing Chicago Center
Fri 12:12:22 AM 41.6872 -86.6364 123° Southeast 416 479 20,800 1,041 Climbing Chicago Center
Fri 12:13:23 AM 41.6239 -86.5031 122° Southeast 424 488 21,800 992 Climbing Chicago Center
Fri 12:14:23 AM 41.5589 -86.3697 123° Southeast 430 495 22,800 992 Climbing Chicago Center
Fri 12:15:24 AM 41.4950 -86.2347 122° Southeast 432 497 23,800 992 Climbing Chicago Center
Fri 12:16:24 AM 41.4292 -86.1011 123° Southeast 434 499 24,800 595 Climbing Chicago Center
Fri 12:17:25 AM 41.3628 -85.9669 123° Southeast 438 504 25,000 98 Climbing Chicago Center
Fri 12:18:26 AM 41.2936 -85.8261 123° Southeast 455 524 25,000  Level Chicago Center
Fri 12:19:26 AM 41.2128 -85.6956 129° Southeast 463 533 25,000  Level Chicago Center
Fri 12:20:27 AM 41.1169 -85.5872 140° Southeast 457 526 25,000 -496 Level Chicago Center
Fri 12:21:27 AM 41.0200 -85.4775 139° Southeast 461 531 24,000 -1,785 Descending Chicago Center
Fri 12:22:28 AM 40.9064 -85.3467 139° Southeast 450 518 21,400 -2,331 Descending Chicago Center
Fri 12:23:28 AM 40.8153 -85.2381 138° Southeast 447 514 19,300 -1,934 Descending Chicago Center
Fri 12:24:29 AM 40.7281 -85.1397 139° Southeast 428 493 17,500 -1,835 Descending Chicago Center
Fri 12:25:29 AM 40.6444 -85.0444 139° Southeast 415 478 15,600 -1,587 Descending Chicago Center
Fri 12:26:30 AM 40.5633 -84.9539 140° Southeast 393 452 14,300 -1,304 Descending Chicago Center
Fri 12:27:24 AM 40.4967 -84.8792 140° Southeast 389 448 13,100 -1,368 Descending Indianapolis Center
Fri 12:28:24 AM 40.4136 -84.7878 140° Southeast 389 448 11,700 -1,140 Descending Indianapolis Center
Fri 12:29:25 AM 40.3303 -84.7131 146° Southeast 357 411 10,800 -942 Descending Indianapolis Center
Fri 12:30:25 AM 40.2567 -84.6561 149° Southeast 314 361 9,800 -1,140 Descending Indianapolis Center
Fri 12:31:26 AM 40.1906 -84.6039 149° Southeast 288 331 8,500 -1,388 Descending Indianapolis Center
Fri 12:32:26 AM 40.1261 -84.5528 149° Southeast 275 316 7,000 -1,488 Descending Indianapolis Center
Fri 12:33:27 AM 40.0636 -84.5031 149° Southeast 266 306 5,500 -1,488 Descending Indianapolis Center
Fri 12:34:27 AM 40.0014 -84.4544 149° Southeast 263 303 4,000 -1,240 Descending Indianapolis Center
Fri 12:35:28 AM 39.9419 -84.4089 150° Southeast 255 293 3,000 -595 Descending Indianapolis Center
Fri 12:36:28 AM 39.8900 -84.3683 149° Southeast 237 273 2,800 -446 Descending Indianapolis Center
Fri 12:37:29 AM 39.8675 -84.3228 123° Southeast 178 205 2,100 -545 Descending Indianapolis Center
Fri 12:38:29 AM 39.8744 -84.2842 77° East 151 174 1,700 -400 Descending Indianapolis Center

Login

Don't have an account? Register now (free) for customized features, flight alerts, and more!